createdAt,value
2022-12-18T00:02:13.828Z,98120.00
2022-12-18T00:07:14.585Z,98124.00
2022-12-18T00:12:15.512Z,98135.00
2022-12-18T00:17:16.273Z,98131.00
2022-12-18T00:22:17.012Z,98135.00
2022-12-18T00:27:17.788Z,98134.00
2022-12-18T00:32:18.898Z,98138.00
2022-12-18T00:37:20.431Z,98144.00
2022-12-18T00:42:43.693Z,98126.00
2022-12-18T00:47:44.481Z,98134.00
2022-12-18T00:52:45.457Z,98132.00
2022-12-18T00:57:46.256Z,98138.00
2022-12-18T01:02:47.289Z,98138.00
2022-12-18T01:07:48.130Z,98134.00
2022-12-18T01:12:49.879Z,98131.00
2022-12-18T01:17:53.336Z,98132.00
2022-12-18T01:22:54.667Z,98128.00
2022-12-18T01:27:55.451Z,98136.00
2022-12-18T01:32:56.178Z,98147.00
2022-12-18T01:37:56.974Z,98153.00
2022-12-18T01:42:57.874Z,98156.00
2022-12-18T01:48:03.090Z,98160.00
2022-12-18T01:53:11.491Z,98161.00
2022-12-18T01:58:12.877Z,98166.00
2022-12-18T02:03:13.837Z,98156.00
2022-12-18T02:08:34.225Z,98164.00
2022-12-18T02:13:51.290Z,98163.00
2022-12-18T02:18:58.227Z,98159.00
2022-12-18T02:26:44.641Z,98155.00
2022-12-18T02:31:57.071Z,98165.00
2022-12-18T02:37:01.049Z,98137.00
2022-12-18T02:42:07.908Z,98139.00
2022-12-18T02:47:12.820Z,98132.00
2022-12-18T02:55:46.280Z,98137.00
2022-12-18T03:01:02.009Z,98136.00
2022-12-18T03:06:18.913Z,98127.00
2022-12-18T03:12:23.101Z,98119.00
2022-12-18T03:17:28.275Z,98138.00
2022-12-18T03:22:33.041Z,98132.00
2022-12-18T03:27:41.057Z,98127.00
2022-12-18T03:34:21.538Z,98134.00
2022-12-18T03:39:25.247Z,98114.00
2022-12-18T03:44:49.223Z,98128.00
2022-12-18T03:50:17.283Z,98136.00
2022-12-18T03:55:23.077Z,98130.00
2022-12-18T04:00:30.636Z,98131.00
2022-12-18T04:05:39.140Z,98125.00
2022-12-18T04:10:41.541Z,98111.00
2022-12-18T04:15:42.399Z,98104.00
2022-12-18T04:20:45.734Z,98106.00
2022-12-18T04:25:47.681Z,98116.00
2022-12-18T04:30:52.451Z,98120.00
2022-12-18T04:35:54.607Z,98114.00
2022-12-18T04:40:55.467Z,98113.00
2022-12-18T04:46:05.202Z,98119.00
2022-12-18T04:51:07.697Z,98121.00
2022-12-18T04:56:11.107Z,98126.00
2022-12-18T05:01:13.851Z,98132.00
2022-12-18T05:06:14.993Z,98129.00
2022-12-18T05:11:16.369Z,98126.00
2022-12-18T05:16:17.346Z,98123.00
2022-12-18T05:21:18.363Z,98127.00
2022-12-18T05:26:19.648Z,98125.00
2022-12-18T05:31:20.595Z,98124.00
2022-12-18T05:36:21.553Z,98116.00
2022-12-18T05:41:22.765Z,98120.00
2022-12-18T05:46:24.944Z,98119.00
2022-12-18T05:51:25.924Z,98119.00
2022-12-18T05:56:26.702Z,98123.00
2022-12-18T06:01:27.781Z,98128.00
2022-12-18T06:06:29.176Z,98128.00
2022-12-18T06:11:29.996Z,98134.00
2022-12-18T06:16:31.592Z,98141.00
2022-12-18T06:21:33.826Z,98151.00
2022-12-18T06:26:37.115Z,98155.00
2022-12-18T06:31:38.043Z,98161.00
2022-12-18T06:36:38.976Z,98174.00
2022-12-18T06:41:39.765Z,98170.00
2022-12-18T06:46:41.503Z,98176.00
2022-12-18T06:51:43.094Z,98168.00
2022-12-18T06:56:46.081Z,98167.00
2022-12-18T07:01:47.123Z,98171.00
2022-12-18T07:06:48.183Z,98152.00
2022-12-18T07:11:48.924Z,98152.00
2022-12-18T07:16:49.758Z,98144.00
2022-12-18T07:21:51.726Z,98152.00
2022-12-18T07:26:52.980Z,98162.00
2022-12-18T07:31:53.828Z,98176.00
2022-12-18T07:36:54.744Z,98179.00
2022-12-18T07:42:15.276Z,98190.00
2022-12-18T07:47:16.047Z,98188.00
2022-12-18T07:52:20.260Z,98185.00
2022-12-18T07:57:49.094Z,98187.00
2022-12-18T08:02:51.235Z,98179.00
2022-12-18T08:07:52.463Z,98192.00
2022-12-18T08:12:53.245Z,98207.00
2022-12-18T08:17:57.060Z,98215.00
2022-12-18T08:22:58.372Z,98198.00
2022-12-18T08:27:59.464Z,98199.00
2022-12-18T08:33:00.186Z,98193.00
2022-12-18T08:38:00.986Z,98179.00
2022-12-18T08:43:20.464Z,98169.00
2022-12-18T08:48:22.400Z,98161.00
2022-12-18T08:53:24.084Z,98163.00
2022-12-18T08:58:24.827Z,98166.00
2022-12-18T09:03:26.008Z,98168.00
2022-12-18T09:08:27.663Z,98160.00
2022-12-18T09:13:28.867Z,98169.00
2022-12-18T09:18:29.754Z,98172.00
2022-12-18T09:23:30.649Z,98181.00
2022-12-18T09:28:31.387Z,98181.00
2022-12-18T09:33:32.423Z,98190.00
2022-12-18T09:38:35.126Z,98201.00
2022-12-18T09:45:29.960Z,98200.00
2022-12-18T09:50:36.852Z,98210.00
2022-12-18T09:55:42.125Z,98213.00
2022-12-18T10:00:44.778Z,98212.00
2022-12-18T10:09:57.599Z,98201.00
2022-12-18T10:15:17.578Z,98183.00
2022-12-18T10:20:46.981Z,98180.00
2022-12-18T10:26:05.139Z,98161.00
2022-12-18T10:31:08.069Z,98160.00
2022-12-18T10:36:09.262Z,98167.00
2022-12-18T10:41:27.433Z,98152.00
2022-12-18T10:46:28.733Z,98176.00
2022-12-18T10:51:37.502Z,98173.00
2022-12-18T10:56:39.651Z,98182.00
2022-12-18T11:02:00.384Z,98182.00
2022-12-18T11:07:04.173Z,98175.00
2022-12-18T11:12:18.812Z,98186.00
2022-12-18T11:17:32.344Z,98172.00
2022-12-18T11:22:38.516Z,98176.00
2022-12-18T11:27:40.644Z,98181.00
2022-12-18T11:32:47.272Z,98171.00
2022-12-18T11:37:54.780Z,98166.00
2022-12-18T11:43:07.031Z,98165.00
2022-12-18T11:48:21.766Z,98151.00
2022-12-18T11:53:24.319Z,98156.00
2022-12-18T11:58:46.186Z,98152.00
2022-12-18T12:05:42.304Z,98156.00
2022-12-18T12:11:07.984Z,98138.00
2022-12-18T12:16:41.801Z,98142.00
2022-12-18T12:21:51.950Z,98132.00
2022-12-18T12:27:05.913Z,98117.00
2022-12-18T12:36:26.859Z,98118.00
2022-12-18T12:42:54.438Z,98107.00
2022-12-18T12:47:58.089Z,98102.00
2022-12-18T12:53:01.681Z,98116.00
2022-12-18T12:58:32.428Z,98103.00
2022-12-18T13:04:02.790Z,98105.00
2022-12-18T13:09:04.358Z,98092.00
2022-12-18T13:14:05.184Z,98086.00
2022-12-18T13:19:26.711Z,98083.00
2022-12-18T13:24:31.250Z,98076.00
2022-12-18T13:29:45.034Z,98074.00
2022-12-18T13:34:46.143Z,98059.00
2022-12-18T13:39:47.042Z,98062.00
2022-12-18T13:44:48.432Z,98064.00
2022-12-18T13:49:49.351Z,98068.00
2022-12-18T13:54:55.922Z,98072.00
2022-12-18T13:59:58.534Z,98060.00
2022-12-18T14:04:59.624Z,98066.00
2022-12-18T14:15:41.505Z,98066.00
2022-12-18T14:20:52.565Z,98078.00
2022-12-18T14:25:54.350Z,98057.00
2022-12-18T14:30:56.728Z,98056.00
2022-12-18T14:36:04.715Z,98060.00
2022-12-18T14:41:16.889Z,98063.00
2022-12-18T14:46:38.594Z,98054.00
2022-12-18T14:51:39.807Z,98055.00
2022-12-18T14:56:47.535Z,98048.00
2022-12-18T15:02:03.639Z,98042.00
2022-12-18T15:07:20.214Z,98048.00
2022-12-18T15:12:33.280Z,98049.00
2022-12-18T15:17:34.098Z,98034.00
2022-12-18T15:22:36.890Z,98050.00
2022-12-18T15:27:38.258Z,98052.00
2022-12-18T15:32:43.393Z,98059.00
2022-12-18T15:37:44.936Z,98050.00
2022-12-18T15:43:05.091Z,98044.00
2022-12-18T15:48:23.092Z,98050.00
2022-12-18T15:53:28.493Z,98046.00
2022-12-18T15:58:29.393Z,98036.00
2022-12-18T16:03:30.447Z,98038.00
2022-12-18T16:08:31.623Z,98035.00
2022-12-18T16:13:32.401Z,98044.00
2022-12-18T16:18:33.629Z,98045.00
2022-12-18T16:23:34.371Z,98055.00
2022-12-18T16:28:35.100Z,98044.00
2022-12-18T16:33:35.871Z,98036.00
2022-12-18T16:38:36.759Z,98042.00
2022-12-18T16:43:37.496Z,98032.00
2022-12-18T16:48:38.298Z,98031.00
2022-12-18T16:53:39.655Z,98031.00
2022-12-18T16:58:40.770Z,98023.00
2022-12-18T17:03:43.834Z,98016.00
2022-12-18T17:08:46.005Z,98011.00
2022-12-18T17:13:46.733Z,98010.00
2022-12-18T17:18:48.022Z,98004.00
2022-12-18T17:23:48.957Z,98011.00
2022-12-18T17:28:50.157Z,98010.00
2022-12-18T17:33:51.878Z,98006.00
2022-12-18T17:38:55.680Z,97997.00
2022-12-18T17:44:03.545Z,98000.00
2022-12-18T17:49:04.597Z,98006.00
2022-12-18T17:54:05.752Z,97998.00
2022-12-18T17:59:06.560Z,98002.00
2022-12-18T18:04:07.898Z,98005.00
2022-12-18T18:09:16.263Z,98006.00
2022-12-18T18:14:19.740Z,98005.00
2022-12-18T18:19:23.152Z,97992.00
2022-12-18T18:24:25.013Z,97989.00
2022-12-18T18:29:29.496Z,97985.00
2022-12-18T18:34:31.811Z,97983.00
2022-12-18T18:39:33.979Z,97985.00
2022-12-18T18:44:35.072Z,97971.00
2022-12-18T18:49:35.903Z,97975.00
2022-12-18T18:54:36.678Z,97956.00
2022-12-18T18:59:38.203Z,97963.00
2022-12-18T19:04:45.039Z,97958.00
2022-12-18T19:09:51.202Z,97954.00
2022-12-18T19:14:53.932Z,97946.00
2022-12-18T19:19:54.933Z,97942.00
2022-12-18T19:24:55.815Z,97934.00
2022-12-18T19:29:56.666Z,97938.00
2022-12-18T19:34:58.286Z,97942.00
2022-12-18T19:40:00.348Z,97941.00
2022-12-18T19:45:03.901Z,97940.00
2022-12-18T19:50:05.738Z,97944.00
2022-12-18T19:55:07.595Z,97948.00
2022-12-18T20:00:14.049Z,97943.00
2022-12-18T20:05:24.334Z,97940.00
2022-12-18T20:10:25.312Z,97940.00
2022-12-18T20:15:26.158Z,97949.00
2022-12-18T20:20:26.941Z,97929.00
2022-12-18T20:25:27.926Z,97917.00
2022-12-18T20:30:28.822Z,97918.00
2022-12-18T20:35:31.469Z,97916.00
2022-12-18T20:40:33.737Z,97913.00
2022-12-18T20:45:34.641Z,97924.00
2022-12-18T20:50:36.612Z,97920.00
2022-12-18T20:55:41.761Z,97930.00
2022-12-18T21:00:42.525Z,97929.00
2022-12-18T21:05:43.393Z,97922.00
2022-12-18T21:10:44.389Z,97921.00
2022-12-18T21:15:45.259Z,97908.00
2022-12-18T21:20:46.297Z,97910.00
2022-12-18T21:25:47.072Z,97911.00
2022-12-18T21:30:51.597Z,97913.00
2022-12-18T21:35:52.400Z,97913.00
2022-12-18T21:40:53.430Z,97911.00
2022-12-18T21:45:54.247Z,97921.00
2022-12-18T21:50:56.514Z,97937.00
2022-12-18T21:55:58.180Z,97916.00
2022-12-18T22:00:59.033Z,97919.00
2022-12-18T22:06:09.403Z,97928.00
2022-12-18T22:11:11.782Z,97925.00
2022-12-18T22:16:12.801Z,97918.00
2022-12-18T22:21:29.716Z,97906.00
2022-12-18T22:26:39.458Z,97914.00
2022-12-18T22:31:41.535Z,97914.00
2022-12-18T22:36:45.979Z,97917.00
2022-12-18T22:41:47.345Z,97901.00
2022-12-18T22:46:56.162Z,97897.00
2022-12-18T22:52:08.712Z,97901.00
2022-12-18T22:57:09.541Z,97898.00
2022-12-18T23:02:10.514Z,97897.00
2022-12-18T23:07:11.419Z,97887.00
2022-12-18T23:12:16.044Z,97890.00
2022-12-18T23:17:16.997Z,97892.00
2022-12-18T23:22:18.202Z,97880.00
2022-12-18T23:27:18.948Z,97885.00
2022-12-18T23:32:19.796Z,97888.00
2022-12-18T23:37:49.736Z,97880.00
2022-12-18T23:42:59.446Z,97883.00
2022-12-18T23:48:00.215Z,97889.00
2022-12-18T23:53:05.474Z,97889.00
2022-12-18T23:58:14.893Z,97891.00
